EDT,Max TemperatureF,Mean TemperatureF,Min TemperatureF,Max Dew PointF,MeanDew PointF,Min DewpointF,Max Humidity, Mean Humidity, Min Humidity, Max Sea Level PressureIn, Mean Sea Level PressureIn, Min Sea Level PressureIn, Max VisibilityMiles, Mean VisibilityMiles, Min VisibilityMiles, Max Wind SpeedMPH, Mean Wind SpeedMPH, Max Gust SpeedMPH,PrecipitationIn, CloudCover, Events, WindDirDegrees
2013-3-1,44,38,33,27,24,21,70,54,39,29.89,29.83,29.77,10,10,10,6,3,,0.00,7,,267
2013-3-2,41,38,35,23,17,10,60,45,33,29.89,29.86,29.81,10,10,10,7,1,,0.00,8,,312
2013-3-3,46,35,24,16,12,9,69,38,22,29.93,29.87,29.79,10,10,10,9,2,24,0.00,2,,274
2013-3-4,51,36,21,14,4,-8,68,32,8,30.05,29.99,29.93,10,10,10,8,2,9,0.00,0,,265
2013-3-5,50,38,26,39,25,9,93,59,27,30.06,29.93,29.67,10,9,4,10,2,20,0.63,6,Rain,100
2013-3-6,39,37,35,36,33,25,100,87,56,30.00,29.69,29.50,10,5,0,13,7,25,0.70,7,Rain-Snow,336
2013-3-7,48,40,33,27,23,18,65,48,34,30.19,30.10,29.99,10,10,10,14,3,21,0.00,2,,340
2013-3-8,51,40,30,25,20,18,69,44,26,30.27,30.20,30.15,10,10,10,14,4,23,0.00,1,,335
2013-3-9,62,44,26,28,19,7,93,43,12,30.33,30.28,30.24,10,10,10,8,2,,0.00,0,,22
2013-3-10,66,46,26,27,17,5,93,38,9,30.31,30.25,30.18,10,10,10,10,1,,0.00,0,,158
2013-3-11,66,52,37,46,39,16,87,57,24,30.21,30.07,29.90,10,10,10,16,4,22,0.00,4,,171
2013-3-12,69,58,46,61,44,23,94,61,22,29.95,29.80,29.71,10,10,7,17,9,22,0.79,5,Rain,218
2013-3-13,53,42,30,30,20,7,93,44,22,30.11,29.99,29.94,10,10,10,18,4,28,0.00,2,,264
2013-3-14,53,40,28,12,8,0,51,27,12,30.18,30.11,30.04,10,10,10,12,4,20,0.00,0,,265
2013-3-15,60,44,28,28,19,7,60,35,22,30.12,29.98,29.82,10,10,10,17,4,24,0.00,0,,219
2013-3-16,78,61,44,55,42,28,100,63,23,29.83,29.73,29.52,10,9,0,22,3,36,0.05,3,Fog-Rain-Thunderstorm,202
2013-3-17,55,47,39,54,39,36,94,90,81,30.23,30.07,29.84,10,6,2,12,7,,0.00,6,Rain,30
2013-3-18,37,36,35,36,35,34,100,95,93,30.25,30.12,29.88,10,4,2,10,6,,0.00,8,Rain,29
2013-3-19,64,50,35,43,13,-20,100,38,4,29.99,29.83,29.76,10,10,5,20,5,29,0.00,1,,245
2013-3-20,55,42,28,16,0,-15,59,16,7,30.04,29.91,29.74,10,10,10,18,5,30,0.00,1,,243
2013-3-21,48,39,30,32,11,-2,93,38,16,29.94,29.80,29.73,10,9,0,12,5,18,0.00,5,Rain-Snow,319
2013-3-22,50,36,21,16,7,3,63,32,15,30.01,29.96,29.90,10,10,10,14,3,18,0.00,0,,244
2013-3-23,59,42,24,25,16,0,86,42,10,30.04,29.96,29.88,10,10,10,12,2,20,0.00,3,,243
2013-3-24,42,38,33,34,27,16,100,72,36,29.96,29.79,29.61,10,7,0,13,6,20,0.00,4,Snow,20
2013-3-25,46,40,33,36,29,18,100,76,32,29.72,29.58,29.52,10,7,1,13,2,20,0.00,7,Rain-Snow,260
2013-3-26,50,42,33,27,22,16,70,47,26,30.04,29.88,29.73,10,10,10,10,4,16,0.00,6,,275
2013-3-27,51,42,33,25,18,9,65,39,19,30.18,30.10,30.04,10,10,10,14,5,22,0.00,2,,272
2013-3-28,55,42,28,25,18,12,80,39,19,30.25,30.17,30.13,10,10,10,12,4,18,0.00,3,,302
2013-3-29,60,45,30,28,20,10,93,40,14,30.28,30.22,30.14,10,10,10,8,2,,0.00,6,,325
2013-3-30,64,48,32,32,23,16,87,42,15,30.22,30.15,30.07,10,10,10,9,2,18,0.00,2,,236
2013-3-31,60,53,46,55,44,25,94,77,37,30.08,29.89,29.74,10,8,0,8,2,,0.00,4,Fog-Rain,194